KMPV

Edward F Knapp State Airport

Barre/Montpelier, Vermont, USA
METAR KMPV 160951Z AUTO 00000KT 10SM BKN050 BKN070 OVC120 M14/M16 A2976 RMK AO2 SLP104 I1000 T11441156
Observed Flight Rules
Dec-16 @ 09:51 UTC (an hour ago) Visual Flight Rules
Wind Visibility Clouds
Calm 10 miles
  • Broken at 5,000' AGL
  • Broken at 7,000' AGL
  • Overcast at 12,000' AGL
Temperatures Readings
Current -14°C / 7°F
Dewpoint -16°C / 3°F
Humidity 85%
Altimeter 29.76" Hg
Pressure 1010.4 hPa
Elevation 343
METAR KMPV 160951Z AUTO 00000KT 10SM BKN050 BKN070 OVC120 M14/M16 A2976 RMK AO2 SLP104 I1000 T11441156
Observed Flight Rules
Dec-16 @ 09:51 UTC
(an hour ago)
VFR
Wind Visibility
Calm 10 miles
Clouds
  • Broken at 5,000' AGL
  • Broken at 7,000' AGL
  • Overcast at 12,000' AGL
Temperature Dewpoint
-14°C / 7°F -16°C / 3°F
Humidity Altimeter Pressure
85% 29.76" Hg 1010.4 hPa